sensor_id;sensor_type;location;lat;lon;timestamp;P1;durP1;ratioP1;P2;durP2;ratioP2
13439;SDS011;6792;57.698;11.946;2022-09-12T00:01:25;3.52;;;3.22;;
13439;SDS011;6792;57.698;11.946;2022-09-12T00:03:54;3.87;;;3.00;;
13439;SDS011;6792;57.698;11.946;2022-09-12T00:06:25;6.70;;;3.37;;
13439;SDS011;6792;57.698;11.946;2022-09-12T00:08:56;3.52;;;3.05;;
13439;SDS011;6792;57.698;11.946;2022-09-12T00:11:27;5.45;;;3.50;;
13439;SDS011;6792;57.698;11.946;2022-09-12T00:13:56;6.30;;;2.92;;
13439;SDS011;6792;57.698;11.946;2022-09-12T00:16:29;4.53;;;2.87;;
13439;SDS011;6792;57.698;11.946;2022-09-12T00:19:00;5.45;;;2.90;;
13439;SDS011;6792;57.698;11.946;2022-09-12T00:21:30;4.00;;;3.27;;
13439;SDS011;6792;57.698;11.946;2022-09-12T00:24:00;5.05;;;3.05;;
13439;SDS011;6792;57.698;11.946;2022-09-12T00:26:30;5.58;;;3.10;;
13439;SDS011;6792;57.698;11.946;2022-09-12T00:28:59;3.75;;;2.83;;
13439;SDS011;6792;57.698;11.946;2022-09-12T00:31:28;4.08;;;2.60;;
13439;SDS011;6792;57.698;11.946;2022-09-12T00:33:58;7.17;;;3.20;;
13439;SDS011;6792;57.698;11.946;2022-09-12T00:36:27;3.40;;;2.95;;
13439;SDS011;6792;57.698;11.946;2022-09-12T00:38:57;4.80;;;3.20;;
13439;SDS011;6792;57.698;11.946;2022-09-12T00:41:26;4.67;;;3.05;;
13439;SDS011;6792;57.698;11.946;2022-09-12T00:43:57;3.62;;;3.05;;
13439;SDS011;6792;57.698;11.946;2022-09-12T00:46:29;2.92;;;2.60;;
13439;SDS011;6792;57.698;11.946;2022-09-12T00:49:02;3.00;;;2.70;;
13439;SDS011;6792;57.698;11.946;2022-09-12T00:51:34;3.83;;;3.00;;
13439;SDS011;6792;57.698;11.946;2022-09-12T00:54:05;3.20;;;2.40;;
13439;SDS011;6792;57.698;11.946;2022-09-12T00:56:37;2.62;;;2.42;;
13439;SDS011;6792;57.698;11.946;2022-09-12T00:59:09;3.15;;;2.62;;
13439;SDS011;6792;57.698;11.946;2022-09-12T01:01:41;4.20;;;2.75;;
13439;SDS011;6792;57.698;11.946;2022-09-12T01:04:11;3.45;;;2.92;;
13439;SDS011;6792;57.698;11.946;2022-09-12T01:06:41;5.22;;;3.02;;
13439;SDS011;6792;57.698;11.946;2022-09-12T01:09:11;4.15;;;3.15;;
13439;SDS011;6792;57.698;11.946;2022-09-12T01:11:42;3.95;;;2.58;;
13439;SDS011;6792;57.698;11.946;2022-09-12T01:14:12;5.78;;;3.12;;
13439;SDS011;6792;57.698;11.946;2022-09-12T01:16:42;4.35;;;3.33;;
13439;SDS011;6792;57.698;11.946;2022-09-12T01:19:17;4.25;;;3.33;;
13439;SDS011;6792;57.698;11.946;2022-09-12T01:22:04;3.40;;;3.10;;
13439;SDS011;6792;57.698;11.946;2022-09-12T01:24:44;3.52;;;2.90;;
13439;SDS011;6792;57.698;11.946;2022-09-12T01:27:34;5.25;;;2.65;;
13439;SDS011;6792;57.698;11.946;2022-09-12T01:30:29;3.65;;;2.77;;
13439;SDS011;6792;57.698;11.946;2022-09-12T01:33:14;4.37;;;3.00;;
13439;SDS011;6792;57.698;11.946;2022-09-12T01:36:04;3.22;;;2.92;;
13439;SDS011;6792;57.698;11.946;2022-09-12T01:38:41;3.85;;;2.67;;
13439;SDS011;6792;57.698;11.946;2022-09-12T01:41:15;5.22;;;2.83;;
13439;SDS011;6792;57.698;11.946;2022-09-12T01:43:48;3.25;;;2.50;;
13439;SDS011;6792;57.698;11.946;2022-09-12T01:46:18;2.95;;;2.52;;
13439;SDS011;6792;57.698;11.946;2022-09-12T01:48:50;3.50;;;2.70;;
13439;SDS011;6792;57.698;11.946;2022-09-12T01:51:23;3.00;;;2.70;;
13439;SDS011;6792;57.698;11.946;2022-09-12T01:53:56;3.27;;;2.90;;
13439;SDS011;6792;57.698;11.946;2022-09-12T01:56:29;2.65;;;2.40;;
13439;SDS011;6792;57.698;11.946;2022-09-12T01:59:02;2.98;;;2.72;;
13439;SDS011;6792;57.698;11.946;2022-09-12T02:01:34;2.95;;;2.65;;
13439;SDS011;6792;57.698;11.946;2022-09-12T02:04:08;7.17;;;2.80;;
13439;SDS011;6792;57.698;11.946;2022-09-12T02:06:41;2.90;;;2.60;;
13439;SDS011;6792;57.698;11.946;2022-09-12T02:09:13;2.72;;;2.50;;
13439;SDS011;6792;57.698;11.946;2022-09-12T02:11:44;3.90;;;2.47;;
13439;SDS011;6792;57.698;11.946;2022-09-12T02:14:16;4.80;;;3.15;;
13439;SDS011;6792;57.698;11.946;2022-09-12T02:16:48;2.92;;;2.62;;
13439;SDS011;6792;57.698;11.946;2022-09-12T02:19:23;3.62;;;2.60;;
13439;SDS011;6792;57.698;11.946;2022-09-12T02:21:54;3.60;;;3.10;;
13439;SDS011;6792;57.698;11.946;2022-09-12T02:24:27;3.33;;;2.85;;
13439;SDS011;6792;57.698;11.946;2022-09-12T02:26:57;3.42;;;3.00;;
13439;SDS011;6792;57.698;11.946;2022-09-12T02:29:29;3.52;;;2.80;;
13439;SDS011;6792;57.698;11.946;2022-09-12T02:31:58;3.58;;;2.90;;
13439;SDS011;6792;57.698;11.946;2022-09-12T02:34:33;7.03;;;3.30;;
13439;SDS011;6792;57.698;11.946;2022-09-12T02:37:06;3.42;;;2.70;;
13439;SDS011;6792;57.698;11.946;2022-09-12T02:39:39;4.22;;;2.90;;
13439;SDS011;6792;57.698;11.946;2022-09-12T02:42:11;5.42;;;2.77;;
13439;SDS011;6792;57.698;11.946;2022-09-12T02:44:41;4.37;;;2.85;;
13439;SDS011;6792;57.698;11.946;2022-09-12T02:47:11;3.98;;;3.00;;
13439;SDS011;6792;57.698;11.946;2022-09-12T02:49:43;7.22;;;3.20;;
13439;SDS011;6792;57.698;11.946;2022-09-12T02:52:12;3.40;;;2.77;;
13439;SDS011;6792;57.698;11.946;2022-09-12T02:54:41;5.78;;;2.90;;
13439;SDS011;6792;57.698;11.946;2022-09-12T02:57:15;4.50;;;2.85;;
13439;SDS011;6792;57.698;11.946;2022-09-12T02:59:45;4.30;;;3.08;;
13439;SDS011;6792;57.698;11.946;2022-09-12T03:02:21;3.67;;;3.02;;
13439;SDS011;6792;57.698;11.946;2022-09-12T03:05:02;4.95;;;3.17;;
13439;SDS011;6792;57.698;11.946;2022-09-12T03:11:30;4.10;;;2.30;;
13439;SDS011;6792;57.698;11.946;2022-09-12T03:14:13;3.92;;;3.00;;
13439;SDS011;6792;57.698;11.946;2022-09-12T03:16:48;4.20;;;3.02;;
13439;SDS011;6792;57.698;11.946;2022-09-12T03:19:21;4.70;;;2.92;;
13439;SDS011;6792;57.698;11.946;2022-09-12T03:21:55;3.52;;;2.87;;
13439;SDS011;6792;57.698;11.946;2022-09-12T03:24:28;3.42;;;2.70;;
13439;SDS011;6792;57.698;11.946;2022-09-12T03:27:02;5.08;;;3.08;;
13439;SDS011;6792;57.698;11.946;2022-09-12T03:29:32;4.85;;;3.10;;
13439;SDS011;6792;57.698;11.946;2022-09-12T03:32:02;2.17;;;2.08;;
13439;SDS011;6792;57.698;11.946;2022-09-12T03:34:32;6.85;;;2.62;;
13439;SDS011;6792;57.698;11.946;2022-09-12T03:37:01;3.33;;;2.85;;
13439;SDS011;6792;57.698;11.946;2022-09-12T03:39:31;3.67;;;2.70;;
13439;SDS011;6792;57.698;11.946;2022-09-12T03:42:00;9.03;;;3.08;;
13439;SDS011;6792;57.698;11.946;2022-09-12T03:44:29;3.02;;;2.70;;
13439;SDS011;6792;57.698;11.946;2022-09-12T03:46:58;2.50;;;2.30;;
13439;SDS011;6792;57.698;11.946;2022-09-12T03:49:27;3.25;;;2.95;;
13439;SDS011;6792;57.698;11.946;2022-09-12T03:51:58;2.70;;;2.50;;
13439;SDS011;6792;57.698;11.946;2022-09-12T03:54:26;3.60;;;3.30;;
13439;SDS011;6792;57.698;11.946;2022-09-12T03:56:55;6.05;;;3.02;;
13439;SDS011;6792;57.698;11.946;2022-09-12T03:59:25;3.10;;;2.62;;
13439;SDS011;6792;57.698;11.946;2022-09-12T04:01:54;7.37;;;3.33;;
13439;SDS011;6792;57.698;11.946;2022-09-12T04:04:23;4.05;;;3.10;;
13439;SDS011;6792;57.698;11.946;2022-09-12T04:06:54;4.65;;;3.20;;
13439;SDS011;6792;57.698;11.946;2022-09-12T04:09:23;7.95;;;3.20;;
13439;SDS011;6792;57.698;11.946;2022-09-12T04:11:52;3.20;;;2.95;;
13439;SDS011;6792;57.698;11.946;2022-09-12T04:14:21;3.72;;;3.12;;
13439;SDS011;6792;57.698;11.946;2022-09-12T04:16:50;5.92;;;3.50;;
13439;SDS011;6792;57.698;11.946;2022-09-12T04:19:19;5.58;;;3.30;;
13439;SDS011;6792;57.698;11.946;2022-09-12T04:21:49;4.28;;;2.98;;
13439;SDS011;6792;57.698;11.946;2022-09-12T04:24:18;4.22;;;3.15;;
13439;SDS011;6792;57.698;11.946;2022-09-12T04:26:47;4.75;;;3.37;;
13439;SDS011;6792;57.698;11.946;2022-09-12T04:29:16;3.40;;;3.10;;
13439;SDS011;6792;57.698;11.946;2022-09-12T04:31:45;5.40;;;3.60;;
13439;SDS011;6792;57.698;11.946;2022-09-12T04:34:14;4.37;;;3.60;;
13439;SDS011;6792;57.698;11.946;2022-09-12T04:36:44;4.55;;;3.20;;
13439;SDS011;6792;57.698;11.946;2022-09-12T04:39:12;4.05;;;3.37;;
13439;SDS011;6792;57.698;11.946;2022-09-12T04:41:42;6.00;;;3.33;;
13439;SDS011;6792;57.698;11.946;2022-09-12T04:44:12;6.12;;;3.62;;
13439;SDS011;6792;57.698;11.946;2022-09-12T04:46:42;3.92;;;3.45;;
13439;SDS011;6792;57.698;11.946;2022-09-12T04:49:13;3.80;;;3.42;;
13439;SDS011;6792;57.698;11.946;2022-09-12T04:51:44;4.72;;;3.45;;
13439;SDS011;6792;57.698;11.946;2022-09-12T04:54:14;4.05;;;2.75;;
13439;SDS011;6792;57.698;11.946;2022-09-12T04:56:45;4.25;;;3.77;;
13439;SDS011;6792;57.698;11.946;2022-09-12T04:59:15;8.23;;;3.65;;
13439;SDS011;6792;57.698;11.946;2022-09-12T05:01:46;5.87;;;3.67;;
13439;SDS011;6792;57.698;11.946;2022-09-12T05:04:15;5.67;;;3.45;;
13439;SDS011;6792;57.698;11.946;2022-09-12T05:06:45;4.22;;;3.40;;
13439;SDS011;6792;57.698;11.946;2022-09-12T05:09:14;5.15;;;3.85;;
13439;SDS011;6792;57.698;11.946;2022-09-12T05:11:43;5.80;;;3.50;;
13439;SDS011;6792;57.698;11.946;2022-09-12T05:14:12;3.92;;;3.52;;
13439;SDS011;6792;57.698;11.946;2022-09-12T05:16:41;5.00;;;3.20;;
13439;SDS011;6792;57.698;11.946;2022-09-12T05:19:11;4.78;;;3.05;;
13439;SDS011;6792;57.698;11.946;2022-09-12T05:21:40;3.22;;;2.90;;
13439;SDS011;6792;57.698;11.946;2022-09-12T05:24:09;7.58;;;3.35;;
13439;SDS011;6792;57.698;11.946;2022-09-12T05:26:39;4.53;;;3.17;;
13439;SDS011;6792;57.698;11.946;2022-09-12T05:29:08;4.15;;;2.75;;
13439;SDS011;6792;57.698;11.946;2022-09-12T05:31:38;4.35;;;3.60;;
13439;SDS011;6792;57.698;11.946;2022-09-12T05:34:09;4.97;;;3.10;;
13439;SDS011;6792;57.698;11.946;2022-09-12T05:36:39;4.33;;;3.33;;
13439;SDS011;6792;57.698;11.946;2022-09-12T05:39:08;3.33;;;3.02;;
13439;SDS011;6792;57.698;11.946;2022-09-12T05:41:37;5.03;;;3.35;;
13439;SDS011;6792;57.698;11.946;2022-09-12T05:44:09;3.37;;;3.08;;
13439;SDS011;6792;57.698;11.946;2022-09-12T05:46:39;3.75;;;3.05;;
13439;SDS011;6792;57.698;11.946;2022-09-12T05:49:11;5.90;;;3.60;;
13439;SDS011;6792;57.698;11.946;2022-09-12T05:51:41;4.30;;;3.33;;
13439;SDS011;6792;57.698;11.946;2022-09-12T05:54:12;4.15;;;3.10;;
13439;SDS011;6792;57.698;11.946;2022-09-12T05:56:43;4.65;;;3.08;;
13439;SDS011;6792;57.698;11.946;2022-09-12T05:59:15;3.85;;;3.10;;
13439;SDS011;6792;57.698;11.946;2022-09-12T06:01:46;5.70;;;3.52;;
13439;SDS011;6792;57.698;11.946;2022-09-12T06:04:15;7.60;;;3.05;;
13439;SDS011;6792;57.698;11.946;2022-09-12T06:06:44;3.45;;;3.15;;
13439;SDS011;6792;57.698;11.946;2022-09-12T06:09:14;3.85;;;2.85;;
13439;SDS011;6792;57.698;11.946;2022-09-12T06:11:44;2.85;;;2.58;;
13439;SDS011;6792;57.698;11.946;2022-09-12T06:14:14;4.20;;;3.17;;
13439;SDS011;6792;57.698;11.946;2022-09-12T06:16:44;7.97;;;3.40;;
13439;SDS011;6792;57.698;11.946;2022-09-12T06:19:15;8.88;;;3.08;;
13439;SDS011;6792;57.698;11.946;2022-09-12T06:21:46;8.58;;;3.72;;
13439;SDS011;6792;57.698;11.946;2022-09-12T06:24:17;7.58;;;3.90;;
13439;SDS011;6792;57.698;11.946;2022-09-12T06:26:46;3.77;;;3.27;;
13439;SDS011;6792;57.698;11.946;2022-09-12T06:29:17;6.25;;;3.45;;
13439;SDS011;6792;57.698;11.946;2022-09-12T06:31:47;8.28;;;3.98;;
13439;SDS011;6792;57.698;11.946;2022-09-12T06:34:16;4.50;;;3.33;;
13439;SDS011;6792;57.698;11.946;2022-09-12T06:36:46;7.08;;;3.62;;
13439;SDS011;6792;57.698;11.946;2022-09-12T06:39:16;6.75;;;3.27;;
13439;SDS011;6792;57.698;11.946;2022-09-12T06:41:47;4.42;;;3.30;;
13439;SDS011;6792;57.698;11.946;2022-09-12T06:44:18;5.58;;;3.85;;
13439;SDS011;6792;57.698;11.946;2022-09-12T06:46:48;5.30;;;3.42;;
13439;SDS011;6792;57.698;11.946;2022-09-12T06:49:19;9.05;;;3.60;;
13439;SDS011;6792;57.698;11.946;2022-09-12T06:51:47;6.53;;;3.00;;
13439;SDS011;6792;57.698;11.946;2022-09-12T06:54:16;6.12;;;3.55;;
13439;SDS011;6792;57.698;11.946;2022-09-12T06:56:46;5.53;;;3.27;;
13439;SDS011;6792;57.698;11.946;2022-09-12T06:59:15;4.00;;;3.50;;
13439;SDS011;6792;57.698;11.946;2022-09-12T07:01:45;3.55;;;2.70;;
13439;SDS011;6792;57.698;11.946;2022-09-12T07:04:14;10.78;;;3.77;;
13439;SDS011;6792;57.698;11.946;2022-09-12T07:06:43;3.95;;;3.37;;
13439;SDS011;6792;57.698;11.946;2022-09-12T07:09:12;3.33;;;2.77;;
13439;SDS011;6792;57.698;11.946;2022-09-12T07:11:42;4.15;;;3.42;;
13439;SDS011;6792;57.698;11.946;2022-09-12T07:14:12;5.85;;;3.50;;
13439;SDS011;6792;57.698;11.946;2022-09-12T07:16:42;4.72;;;3.55;;
13439;SDS011;6792;57.698;11.946;2022-09-12T07:21:56;4.33;;;3.08;;
13439;SDS011;6792;57.698;11.946;2022-09-12T07:24:25;5.35;;;3.83;;
13439;SDS011;6792;57.698;11.946;2022-09-12T07:26:54;4.03;;;3.30;;
13439;SDS011;6792;57.698;11.946;2022-09-12T07:29:23;6.12;;;3.42;;
13439;SDS011;6792;57.698;11.946;2022-09-12T07:31:53;3.50;;;3.15;;
13439;SDS011;6792;57.698;11.946;2022-09-12T07:34:22;7.78;;;3.70;;
13439;SDS011;6792;57.698;11.946;2022-09-12T07:36:52;4.83;;;2.98;;
13439;SDS011;6792;57.698;11.946;2022-09-12T07:39:19;3.55;;;2.77;;
13439;SDS011;6792;57.698;11.946;2022-09-12T07:41:48;3.37;;;3.05;;
13439;SDS011;6792;57.698;11.946;2022-09-12T07:44:17;4.03;;;3.22;;
13439;SDS011;6792;57.698;11.946;2022-09-12T07:46:48;6.58;;;3.40;;
13439;SDS011;6792;57.698;11.946;2022-09-12T07:49:20;5.35;;;3.30;;
13439;SDS011;6792;57.698;11.946;2022-09-12T07:51:49;4.17;;;2.60;;
13439;SDS011;6792;57.698;11.946;2022-09-12T07:54:18;5.55;;;3.22;;
13439;SDS011;6792;57.698;11.946;2022-09-12T07:56:47;4.70;;;3.60;;
13439;SDS011;6792;57.698;11.946;2022-09-12T07:59:17;3.60;;;3.25;;
13439;SDS011;6792;57.698;11.946;2022-09-12T08:01:45;8.83;;;3.20;;
13439;SDS011;6792;57.698;11.946;2022-09-12T08:04:14;5.53;;;3.40;;
13439;SDS011;6792;57.698;11.946;2022-09-12T08:06:43;3.92;;;2.98;;
13439;SDS011;6792;57.698;11.946;2022-09-12T08:09:12;5.33;;;3.22;;
13439;SDS011;6792;57.698;11.946;2022-09-12T08:11:43;6.95;;;2.77;;
13439;SDS011;6792;57.698;11.946;2022-09-12T08:14:12;4.95;;;2.77;;
13439;SDS011;6792;57.698;11.946;2022-09-12T08:16:43;4.95;;;2.37;;
13439;SDS011;6792;57.698;11.946;2022-09-12T08:19:11;4.47;;;2.65;;
13439;SDS011;6792;57.698;11.946;2022-09-12T08:21:40;3.02;;;2.25;;
13439;SDS011;6792;57.698;11.946;2022-09-12T08:24:10;3.35;;;2.83;;
13439;SDS011;6792;57.698;11.946;2022-09-12T08:26:41;2.67;;;2.47;;
13439;SDS011;6792;57.698;11.946;2022-09-12T08:29:10;3.40;;;2.75;;
13439;SDS011;6792;57.698;11.946;2022-09-12T08:31:39;4.28;;;2.40;;
13439;SDS011;6792;57.698;11.946;2022-09-12T08:34:07;4.67;;;2.77;;
13439;SDS011;6792;57.698;11.946;2022-09-12T08:36:36;4.50;;;2.35;;
13439;SDS011;6792;57.698;11.946;2022-09-12T08:39:06;2.72;;;2.52;;
13439;SDS011;6792;57.698;11.946;2022-09-12T08:41:35;4.42;;;2.27;;
13439;SDS011;6792;57.698;11.946;2022-09-12T08:44:19;3.70;;;2.45;;
13439;SDS011;6792;57.698;11.946;2022-09-12T08:47:13;5.53;;;2.00;;
13439;SDS011;6792;57.698;11.946;2022-09-12T08:49:49;2.62;;;2.00;;
13439;SDS011;6792;57.698;11.946;2022-09-12T08:52:34;1.80;;;1.70;;
13439;SDS011;6792;57.698;11.946;2022-09-12T08:55:05;2.58;;;2.10;;
13439;SDS011;6792;57.698;11.946;2022-09-12T08:57:39;3.55;;;1.47;;
13439;SDS011;6792;57.698;11.946;2022-09-12T09:00:12;1.55;;;1.45;;
13439;SDS011;6792;57.698;11.946;2022-09-12T09:02:47;1.70;;;1.10;;
13439;SDS011;6792;57.698;11.946;2022-09-12T09:05:46;1.50;;;1.40;;
13439;SDS011;6792;57.698;11.946;2022-09-12T09:08:29;1.50;;;1.40;;
13439;SDS011;6792;57.698;11.946;2022-09-12T09:11:07;2.40;;;1.70;;
13439;SDS011;6792;57.698;11.946;2022-09-12T09:13:44;2.42;;;1.57;;
13439;SDS011;6792;57.698;11.946;2022-09-12T09:16:35;1.37;;;1.27;;
13439;SDS011;6792;57.698;11.946;2022-09-12T09:19:08;1.77;;;1.15;;
13439;SDS011;6792;57.698;11.946;2022-09-12T09:21:40;4.87;;;1.47;;
13439;SDS011;6792;57.698;11.946;2022-09-12T09:24:12;3.37;;;1.17;;
13439;SDS011;6792;57.698;11.946;2022-09-12T09:26:45;1.40;;;1.22;;
13439;SDS011;6792;57.698;11.946;2022-09-12T09:29:17;1.40;;;1.20;;
13439;SDS011;6792;57.698;11.946;2022-09-12T09:31:52;3.30;;;1.40;;
13439;SDS011;6792;57.698;11.946;2022-09-12T09:34:22;3.47;;;1.45;;
13439;SDS011;6792;57.698;11.946;2022-09-12T09:36:55;1.85;;;1.47;;
13439;SDS011;6792;57.698;11.946;2022-09-12T09:39:29;2.42;;;1.27;;
13439;SDS011;6792;57.698;11.946;2022-09-12T09:42:09;1.20;;;1.10;;
13439;SDS011;6792;57.698;11.946;2022-09-12T09:44:42;1.80;;;1.42;;
13439;SDS011;6792;57.698;11.946;2022-09-12T09:47:14;1.22;;;1.12;;
13439;SDS011;6792;57.698;11.946;2022-09-12T09:49:44;1.87;;;1.40;;
13439;SDS011;6792;57.698;11.946;2022-09-12T09:52:14;3.83;;;1.85;;
13439;SDS011;6792;57.698;11.946;2022-09-12T09:54:46;2.62;;;1.20;;
13439;SDS011;6792;57.698;11.946;2022-09-12T09:57:38;2.72;;;1.70;;
13439;SDS011;6792;57.698;11.946;2022-09-12T10:00:20;1.25;;;1.10;;
13439;SDS011;6792;57.698;11.946;2022-09-12T10:02:58;3.15;;;1.80;;
13439;SDS011;6792;57.698;11.946;2022-09-12T10:05:44;1.45;;;1.35;;
13439;SDS011;6792;57.698;11.946;2022-09-12T10:08:22;3.05;;;1.20;;
13439;SDS011;6792;57.698;11.946;2022-09-12T10:10:53;3.05;;;1.60;;
13439;SDS011;6792;57.698;11.946;2022-09-12T10:13:28;4.67;;;1.62;;
13439;SDS011;6792;57.698;11.946;2022-09-12T10:16:04;1.87;;;1.50;;
13439;SDS011;6792;57.698;11.946;2022-09-12T10:18:39;3.35;;;1.77;;
13439;SDS011;6792;57.698;11.946;2022-09-12T10:21:13;2.30;;;1.87;;
13439;SDS011;6792;57.698;11.946;2022-09-12T10:23:44;2.40;;;1.90;;
13439;SDS011;6792;57.698;11.946;2022-09-12T10:26:15;2.45;;;1.80;;
13439;SDS011;6792;57.698;11.946;2022-09-12T10:28:48;2.98;;;1.55;;
13439;SDS011;6792;57.698;11.946;2022-09-12T10:31:26;4.12;;;1.92;;
13439;SDS011;6792;57.698;11.946;2022-09-12T10:33:57;6.55;;;2.37;;
13439;SDS011;6792;57.698;11.946;2022-09-12T10:36:34;2.33;;;1.77;;
13439;SDS011;6792;57.698;11.946;2022-09-12T10:39:04;1.87;;;1.77;;
13439;SDS011;6792;57.698;11.946;2022-09-12T10:41:39;2.77;;;1.70;;
13439;SDS011;6792;57.698;11.946;2022-09-12T10:44:13;6.75;;;1.70;;
13439;SDS011;6792;57.698;11.946;2022-09-12T10:46:44;4.83;;;1.50;;
13439;SDS011;6792;57.698;11.946;2022-09-12T10:49:20;8.33;;;1.42;;
13439;SDS011;6792;57.698;11.946;2022-09-12T10:51:51;2.60;;;1.37;;
13439;SDS011;6792;57.698;11.946;2022-09-12T10:54:21;1.95;;;1.17;;
13439;SDS011;6792;57.698;11.946;2022-09-12T11:00:12;1.62;;;1.25;;
13439;SDS011;6792;57.698;11.946;2022-09-12T11:02:54;3.67;;;1.40;;
13439;SDS011;6792;57.698;11.946;2022-09-12T11:08:39;1.12;;;1.12;;
13439;SDS011;6792;57.698;11.946;2022-09-12T11:11:18;2.67;;;1.20;;
13439;SDS011;6792;57.698;11.946;2022-09-12T11:13:56;1.30;;;1.20;;
13439;SDS011;6792;57.698;11.946;2022-09-12T11:16:30;2.55;;;1.30;;
13439;SDS011;6792;57.698;11.946;2022-09-12T11:19:14;1.27;;;1.10;;
13439;SDS011;6792;57.698;11.946;2022-09-12T11:21:54;1.72;;;1.55;;
13439;SDS011;6792;57.698;11.946;2022-09-12T11:24:33;1.85;;;1.60;;
13439;SDS011;6792;57.698;11.946;2022-09-12T11:27:20;2.15;;;1.50;;
13439;SDS011;6792;57.698;11.946;2022-09-12T11:29:58;1.30;;;1.20;;
13439;SDS011;6792;57.698;11.946;2022-09-12T11:35:37;1.82;;;1.25;;
13439;SDS011;6792;57.698;11.946;2022-09-12T11:38:12;1.30;;;1.20;;
13439;SDS011;6792;57.698;11.946;2022-09-12T11:41:00;1.40;;;1.30;;
13439;SDS011;6792;57.698;11.946;2022-09-12T11:43:34;2.33;;;1.60;;
13439;SDS011;6792;57.698;11.946;2022-09-12T11:46:08;3.10;;;1.10;;
13439;SDS011;6792;57.698;11.946;2022-09-12T11:48:42;2.17;;;1.37;;
13439;SDS011;6792;57.698;11.946;2022-09-12T11:51:18;2.00;;;1.32;;
13439;SDS011;6792;57.698;11.946;2022-09-12T11:53:53;2.52;;;1.75;;
13439;SDS011;6792;57.698;11.946;2022-09-12T11:56:26;2.65;;;1.50;;
13439;SDS011;6792;57.698;11.946;2022-09-12T11:58:57;1.35;;;1.10;;
13439;SDS011;6792;57.698;11.946;2022-09-12T12:01:31;1.57;;;1.42;;
13439;SDS011;6792;57.698;11.946;2022-09-12T12:04:05;2.37;;;1.65;;
13439;SDS011;6792;57.698;11.946;2022-09-12T12:06:42;4.87;;;1.50;;
13439;SDS011;6792;57.698;11.946;2022-09-12T12:09:09;1.72;;;1.05;;
13439;SDS011;6792;57.698;11.946;2022-09-12T12:11:40;1.30;;;1.20;;
13439;SDS011;6792;57.698;11.946;2022-09-12T12:14:22;1.50;;;1.40;;
13439;SDS011;6792;57.698;11.946;2022-09-12T12:16:53;1.47;;;1.37;;
13439;SDS011;6792;57.698;11.946;2022-09-12T12:19:27;2.55;;;1.30;;
13439;SDS011;6792;57.698;11.946;2022-09-12T12:22:06;1.20;;;1.10;;
13439;SDS011;6792;57.698;11.946;2022-09-12T12:28:01;2.22;;;1.20;;
13439;SDS011;6792;57.698;11.946;2022-09-12T12:33:51;2.83;;;1.07;;
13439;SDS011;6792;57.698;11.946;2022-09-12T12:36:29;2.02;;;1.30;;
13439;SDS011;6792;57.698;11.946;2022-09-12T12:39:11;2.65;;;1.10;;
13439;SDS011;6792;57.698;11.946;2022-09-12T12:45:47;4.97;;;1.40;;
13439;SDS011;6792;57.698;11.946;2022-09-12T12:51:38;3.50;;;1.40;;
13439;SDS011;6792;57.698;11.946;2022-09-12T12:57:18;2.37;;;1.25;;
13439;SDS011;6792;57.698;11.946;2022-09-12T13:00:26;2.83;;;1.07;;
13439;SDS011;6792;57.698;11.946;2022-09-12T13:02:58;2.25;;;1.42;;
13439;SDS011;6792;57.698;11.946;2022-09-12T13:05:36;1.40;;;1.30;;
13439;SDS011;6792;57.698;11.946;2022-09-12T13:08:06;2.85;;;1.47;;
13439;SDS011;6792;57.698;11.946;2022-09-12T13:10:38;4.17;;;1.60;;
13439;SDS011;6792;57.698;11.946;2022-09-12T13:13:19;1.98;;;1.40;;
13439;SDS011;6792;57.698;11.946;2022-09-12T13:15:52;3.83;;;1.50;;
13439;SDS011;6792;57.698;11.946;2022-09-12T13:18:23;2.65;;;1.40;;
13439;SDS011;6792;57.698;11.946;2022-09-12T13:20:56;1.10;;;1.00;;
13439;SDS011;6792;57.698;11.946;2022-09-12T13:23:30;3.60;;;1.40;;
13439;SDS011;6792;57.698;11.946;2022-09-12T13:26:00;1.35;;;1.25;;
13439;SDS011;6792;57.698;11.946;2022-09-12T13:28:30;2.35;;;1.30;;
13439;SDS011;6792;57.698;11.946;2022-09-12T13:31:00;2.05;;;1.32;;
13439;SDS011;6792;57.698;11.946;2022-09-12T13:33:34;1.98;;;1.20;;
13439;SDS011;6792;57.698;11.946;2022-09-12T13:39:14;3.12;;;1.60;;
13439;SDS011;6792;57.698;11.946;2022-09-12T13:44:53;4.17;;;1.22;;
13439;SDS011;6792;57.698;11.946;2022-09-12T13:47:25;3.05;;;1.30;;
13439;SDS011;6792;57.698;11.946;2022-09-12T13:49:57;2.95;;;1.65;;
13439;SDS011;6792;57.698;11.946;2022-09-12T13:52:28;2.45;;;1.60;;
13439;SDS011;6792;57.698;11.946;2022-09-12T13:54:59;1.70;;;1.30;;
13439;SDS011;6792;57.698;11.946;2022-09-12T13:57:32;1.95;;;1.40;;
13439;SDS011;6792;57.698;11.946;2022-09-12T14:00:05;3.17;;;1.22;;
13439;SDS011;6792;57.698;11.946;2022-09-12T14:02:39;2.92;;;1.30;;
13439;SDS011;6792;57.698;11.946;2022-09-12T14:05:12;2.55;;;1.80;;
13439;SDS011;6792;57.698;11.946;2022-09-12T14:07:48;2.45;;;1.20;;
13439;SDS011;6792;57.698;11.946;2022-09-12T14:10:28;6.65;;;1.37;;
13439;SDS011;6792;57.698;11.946;2022-09-12T14:12:59;1.77;;;1.30;;
13439;SDS011;6792;57.698;11.946;2022-09-12T14:15:31;2.95;;;1.70;;
13439;SDS011;6792;57.698;11.946;2022-09-12T14:18:04;2.10;;;1.70;;
13439;SDS011;6792;57.698;11.946;2022-09-12T14:20:36;2.10;;;1.80;;
13439;SDS011;6792;57.698;11.946;2022-09-12T14:23:11;1.65;;;1.55;;
13439;SDS011;6792;57.698;11.946;2022-09-12T14:25:41;4.00;;;1.72;;
13439;SDS011;6792;57.698;11.946;2022-09-12T14:28:13;2.95;;;1.77;;
13439;SDS011;6792;57.698;11.946;2022-09-12T14:30:56;4.03;;;1.70;;
13439;SDS011;6792;57.698;11.946;2022-09-12T14:33:27;2.47;;;2.10;;
13439;SDS011;6792;57.698;11.946;2022-09-12T14:36:08;1.60;;;1.40;;
13439;SDS011;6792;57.698;11.946;2022-09-12T14:38:40;1.47;;;1.32;;
13439;SDS011;6792;57.698;11.946;2022-09-12T14:41:12;2.42;;;1.55;;
13439;SDS011;6792;57.698;11.946;2022-09-12T14:43:44;1.92;;;1.45;;
13439;SDS011;6792;57.698;11.946;2022-09-12T14:46:15;3.77;;;1.67;;
13439;SDS011;6792;57.698;11.946;2022-09-12T14:48:47;1.50;;;1.40;;
13439;SDS011;6792;57.698;11.946;2022-09-12T14:51:20;3.00;;;1.47;;
13439;SDS011;6792;57.698;11.946;2022-09-12T14:53:51;3.47;;;1.70;;
13439;SDS011;6792;57.698;11.946;2022-09-12T14:56:20;2.45;;;1.52;;
13439;SDS011;6792;57.698;11.946;2022-09-12T14:58:51;1.67;;;1.50;;
13439;SDS011;6792;57.698;11.946;2022-09-12T15:01:23;3.05;;;1.42;;
13439;SDS011;6792;57.698;11.946;2022-09-12T15:03:53;1.95;;;1.70;;
13439;SDS011;6792;57.698;11.946;2022-09-12T15:06:25;4.80;;;1.50;;
13439;SDS011;6792;57.698;11.946;2022-09-12T15:08:56;4.20;;;1.42;;
13439;SDS011;6792;57.698;11.946;2022-09-12T15:11:27;2.37;;;1.52;;
13439;SDS011;6792;57.698;11.946;2022-09-12T15:13:58;2.80;;;1.30;;
13439;SDS011;6792;57.698;11.946;2022-09-12T15:16:35;3.20;;;2.02;;
13439;SDS011;6792;57.698;11.946;2022-09-12T15:19:04;3.77;;;1.67;;
13439;SDS011;6792;57.698;11.946;2022-09-12T15:21:33;2.10;;;1.52;;
13439;SDS011;6792;57.698;11.946;2022-09-12T15:24:02;1.87;;;1.60;;
13439;SDS011;6792;57.698;11.946;2022-09-12T15:26:31;1.98;;;1.60;;
13439;SDS011;6792;57.698;11.946;2022-09-12T15:29:00;4.20;;;1.90;;
13439;SDS011;6792;57.698;11.946;2022-09-12T15:31:30;3.98;;;1.40;;
13439;SDS011;6792;57.698;11.946;2022-09-12T15:33:59;3.33;;;1.60;;
13439;SDS011;6792;57.698;11.946;2022-09-12T15:36:29;4.97;;;1.92;;
13439;SDS011;6792;57.698;11.946;2022-09-12T15:38:58;2.65;;;1.80;;
13439;SDS011;6792;57.698;11.946;2022-09-12T15:41:28;5.28;;;1.50;;
13439;SDS011;6792;57.698;11.946;2022-09-12T15:43:59;2.75;;;1.40;;
13439;SDS011;6792;57.698;11.946;2022-09-12T15:46:29;2.67;;;1.57;;
13439;SDS011;6792;57.698;11.946;2022-09-12T15:48:58;5.15;;;1.75;;
13439;SDS011;6792;57.698;11.946;2022-09-12T15:51:27;3.65;;;1.60;;
13439;SDS011;6792;57.698;11.946;2022-09-12T15:53:56;2.12;;;1.87;;
13439;SDS011;6792;57.698;11.946;2022-09-12T15:56:25;2.65;;;1.77;;
13439;SDS011;6792;57.698;11.946;2022-09-12T15:58:54;4.72;;;1.80;;